Página principal
METAR-TAF:

METAR-TAF

Aeroportos :

Bobo Dioulasso, Burkina Faso

latitude: 11-10N, longitude: 004-19W, altura: 460 m

Observação actual do tempo

O boletim foi feito há 51 minutos, às 14:00 UTC
Vento 5 kt de es-nordeste, variando entre norte e es-sudeste
Temperatura 35°C
Humidade 39%
Pressão 1011 hPa
Visibilidade 10 km ou mais
Poucas nuvensa uma altura de 2000 ft

METAR: DFOO 221400Z 06005KT 360V120 9999 FEW020 35/19 Q1011

Hora: 14:51 (14:51 UTC)

Previsão

O boletim foi feito há 3 horas e 51 minutos, às 11:00 UTC
Previsão válida de 22 às 12 UTC a 23 às 12 UTC
Vento 8 kt com direcção variável
Visibilidade 10 km ou mais
sem nuvens abaixo de 1500 metros e sem cumulonimbus
Probabilidade 30% :
Temporariamente
de 22 às 16 UTC a 22 às 24 UTC
Poucas nuvensa uma altura de 2000 ft
Poucas nuvensa uma altura de 3300 ft, Cumulonimbus.
trovoada

TAF: DFOO 221100Z 2212/2312 VRB08KT CAVOK PROB30 TEMPO 2216/2224 TS FEW020 FEW033CB

Observações e previsões do tempo de mais de 4000 aeroportos (mensagens METAR e TAF).

As estações disponíveis são os pontos amarelos e vermelhos sobre o mapa.

Mova o rato sobre o mapa para ver o nome da estação.

Depois clique no ponto para visualizar as observações e previsões meteorológicas.

Para alterar o mapa : clique nos botões verdes com uma cruz preta para aumentar o zoom; no botão verde com uma pitada de zoom; ou nas setas verdes para mapas adjacentes.


METAR-TAF: